Huvudsida
METAR-TAF:

METAR-TAF

Flygplatser :

Malmens flygplats

Linköping, Sverige

latitud: 58-24N, longitud: 015-31E, höjd: 93 m

Aktuellt väderrapport

Denna rapport gjordes för 20 minuter sedan, klockan 06:50 UTC
Vind 7 kt från nordväst
Temperatur -1°C
Fuktighet 86%
Tryck 996 hPa
Sikt 10 km eller mer
Få moln på en höjd av 900 ft
Mulet på en höjd av 1500 ft

METAR: ESCF 250650Z 32007KT 9999 FEW009 OVC015 M01/M03 Q0996

Tid: 08:10 (07:10 UTC)

Väderprognos

Denna rapport gjordes för 1 timme och 20 minuter sedan, klockan 05:50 UTC
Prognos gäller från 25 kl. 06 UTC till 25 kl. 15 UTC
Vind 8 kt från nord/nordväst
Sikt 10 km eller mer
Brutna moln på en höjd av 1500 ft
Temporärt
från 25 kl. 06 UTC till 25 kl. 15 UTC
Brutna moln på en höjd av 700 ft
Sannolikhet 40%
från 25 kl. 10 UTC till 25 kl. 15 UTC
Sikt: 3000 m
lätt snö

TAF: ESCF 250550Z 2506/2515 33008KT 9999 BKN015 TEMPO 2506/2515 BKN007 PROB40 2510/2515 3000 -SN RMK MIL

Aktuella väderrapporter och prognoser från 4000 flygplatser (METAR- och TAF-rapporter).

De tillgängliga stationerna syns som gula och röda prickar på kartan.

För musen över prickarna för att se namnen på stationerna.

Klicka sedan för att få väderrapporter och prognoser.

För att ändra kartan: Klicka på de gröna knapparna med ett svart kors på för att zooma in; den gröna knappen med ett streck på för att zooma ut; eller på de gröna pilarna för angränsande kartor.


METAR-TAF: